AYMO/MAS METAR and TAF weather

Enter ICAO airport designator
Station Type Date Time Source
AYMO METAR 2018/07/29 02:00 UTC NOAA

AYMO 290200Z 17010KT 9999 FEW018 SCT300 31/25 Q1010


Station Type Date Time Source
AYMO Decoded METAR 2018/07/29 02:00 UTC NOAA

Manus Island/Momote, Papua New Guinea (AYMO) 02-03-43S 147-25-27E
Jul 28, 2018 - 10:00 PM EDT / 2018.07.29 0200 UTC
Wind: from the S (170 degrees) at 12 MPH (10 KT):0
Visibility: greater than 7 mile(s):0
Sky conditions: partly cloudy
Temperature: 87 F (31 C)
Heat index: 97.5 F (36.4 C):1
Dew Point: 77 F (25 C)
Relative Humidity: 70%
Pressure (altimeter): 29.83 in. Hg (1010 hPa)
ob: AYMO 290200Z 17010KT 9999 FEW018 SCT300 31/25 Q1010
cycle: 2

Station Type Date Time Source
AYMO TAF 2018/08/02 20:51 UTC NOAA

TAF TAF AYMO 021437Z 0220/0308 16010KT 9999 SCT018 BKN140 Q1008 1010 1009 1007


Example: see airport list